sensor_id;sensor_type;location;lat;lon;timestamp;P1;durP1;ratioP1;P2;durP2;ratioP2
48665;SDS011;34452;50.796;4.994;2022-07-29T00:01:48;15.98;;;1.95;;
48665;SDS011;34452;50.796;4.994;2022-07-29T00:04:14;8.63;;;1.65;;
48665;SDS011;34452;50.796;4.994;2022-07-29T00:06:40;4.28;;;1.48;;
48665;SDS011;34452;50.796;4.994;2022-07-29T00:09:05;12.70;;;1.92;;
48665;SDS011;34452;50.796;4.994;2022-07-29T00:11:31;14.27;;;2.15;;
48665;SDS011;34452;50.796;4.994;2022-07-29T00:13:58;8.95;;;1.52;;
48665;SDS011;34452;50.796;4.994;2022-07-29T00:16:23;4.88;;;1.60;;
48665;SDS011;34452;50.796;4.994;2022-07-29T00:18:49;5.45;;;1.50;;
48665;SDS011;34452;50.796;4.994;2022-07-29T00:21:15;6.57;;;1.83;;
48665;SDS011;34452;50.796;4.994;2022-07-29T00:23:41;6.65;;;1.50;;
48665;SDS011;34452;50.796;4.994;2022-07-29T00:26:06;14.77;;;2.10;;
48665;SDS011;34452;50.796;4.994;2022-07-29T00:28:32;14.10;;;2.20;;
48665;SDS011;34452;50.796;4.994;2022-07-29T00:30:58;7.90;;;2.17;;
48665;SDS011;34452;50.796;4.994;2022-07-29T00:33:24;4.15;;;1.60;;
48665;SDS011;34452;50.796;4.994;2022-07-29T00:35:49;10.90;;;2.13;;
48665;SDS011;34452;50.796;4.994;2022-07-29T00:38:16;10.07;;;1.77;;
48665;SDS011;34452;50.796;4.994;2022-07-29T00:40:43;10.32;;;1.70;;
48665;SDS011;34452;50.796;4.994;2022-07-29T00:43:10;8.55;;;1.77;;
48665;SDS011;34452;50.796;4.994;2022-07-29T00:45:36;11.32;;;1.85;;
48665;SDS011;34452;50.796;4.994;2022-07-29T00:48:02;4.15;;;1.60;;
48665;SDS011;34452;50.796;4.994;2022-07-29T00:50:30;6.15;;;1.85;;
48665;SDS011;34452;50.796;4.994;2022-07-29T00:52:57;5.45;;;1.55;;
48665;SDS011;34452;50.796;4.994;2022-07-29T00:55:23;7.35;;;1.77;;
48665;SDS011;34452;50.796;4.994;2022-07-29T00:57:49;7.05;;;1.85;;
48665;SDS011;34452;50.796;4.994;2022-07-29T01:02:43;5.15;;;1.70;;
48665;SDS011;34452;50.796;4.994;2022-07-29T01:05:09;6.97;;;1.60;;
48665;SDS011;34452;50.796;4.994;2022-07-29T01:07:37;8.25;;;2.42;;
48665;SDS011;34452;50.796;4.994;2022-07-29T01:10:05;6.82;;;2.05;;
48665;SDS011;34452;50.796;4.994;2022-07-29T01:12:32;7.20;;;2.13;;
48665;SDS011;34452;50.796;4.994;2022-07-29T01:15:00;7.88;;;1.63;;
48665;SDS011;34452;50.796;4.994;2022-07-29T01:17:32;5.90;;;1.65;;
48665;SDS011;34452;50.796;4.994;2022-07-29T01:20:18;8.40;;;2.05;;
48665;SDS011;34452;50.796;4.994;2022-07-29T01:31:18;5.07;;;2.08;;
48665;SDS011;34452;50.796;4.994;2022-07-29T01:34:02;4.55;;;1.60;;
48665;SDS011;34452;50.796;4.994;2022-07-29T01:36:31;10.25;;;2.13;;
48665;SDS011;34452;50.796;4.994;2022-07-29T01:39:17;7.53;;;2.00;;
48665;SDS011;34452;50.796;4.994;2022-07-29T01:41:56;9.20;;;1.98;;
48665;SDS011;34452;50.796;4.994;2022-07-29T01:44:27;10.82;;;3.22;;
48665;SDS011;34452;50.796;4.994;2022-07-29T01:47:10;6.85;;;1.92;;
48665;SDS011;34452;50.796;4.994;2022-07-29T01:49:42;6.63;;;1.95;;
48665;SDS011;34452;50.796;4.994;2022-07-29T01:52:14;9.68;;;1.90;;
48665;SDS011;34452;50.796;4.994;2022-07-29T01:54:46;6.00;;;2.05;;
48665;SDS011;34452;50.796;4.994;2022-07-29T01:57:17;13.02;;;2.35;;
48665;SDS011;34452;50.796;4.994;2022-07-29T01:59:46;7.00;;;2.00;;
48665;SDS011;34452;50.796;4.994;2022-07-29T02:02:15;8.60;;;2.22;;
48665;SDS011;34452;50.796;4.994;2022-07-29T02:04:42;7.25;;;1.73;;
48665;SDS011;34452;50.796;4.994;2022-07-29T02:07:10;11.25;;;2.10;;
48665;SDS011;34452;50.796;4.994;2022-07-29T02:09:41;8.48;;;1.90;;
48665;SDS011;34452;50.796;4.994;2022-07-29T02:12:08;10.20;;;2.17;;
48665;SDS011;34452;50.796;4.994;2022-07-29T02:14:37;10.63;;;2.30;;
48665;SDS011;34452;50.796;4.994;2022-07-29T02:17:07;8.13;;;2.67;;
48665;SDS011;34452;50.796;4.994;2022-07-29T02:19:33;8.77;;;1.92;;
48665;SDS011;34452;50.796;4.994;2022-07-29T02:22:02;8.77;;;1.80;;
48665;SDS011;34452;50.796;4.994;2022-07-29T02:24:29;12.40;;;2.20;;
48665;SDS011;34452;50.796;4.994;2022-07-29T02:26:56;7.60;;;1.75;;
48665;SDS011;34452;50.796;4.994;2022-07-29T02:29:23;5.65;;;1.77;;
48665;SDS011;34452;50.796;4.994;2022-07-29T02:31:51;8.60;;;1.98;;
48665;SDS011;34452;50.796;4.994;2022-07-29T02:34:18;12.32;;;2.38;;
48665;SDS011;34452;50.796;4.994;2022-07-29T02:36:46;6.20;;;1.92;;
48665;SDS011;34452;50.796;4.994;2022-07-29T02:39:12;7.93;;;2.20;;
48665;SDS011;34452;50.796;4.994;2022-07-29T02:41:41;8.85;;;2.03;;
48665;SDS011;34452;50.796;4.994;2022-07-29T02:44:10;13.55;;;2.55;;
48665;SDS011;34452;50.796;4.994;2022-07-29T02:49:27;7.28;;;2.00;;
48665;SDS011;34452;50.796;4.994;2022-07-29T02:54:58;8.88;;;2.38;;
48665;SDS011;34452;50.796;4.994;2022-07-29T02:57:41;7.28;;;2.05;;
48665;SDS011;34452;50.796;4.994;2022-07-29T03:00:11;6.55;;;2.05;;
48665;SDS011;34452;50.796;4.994;2022-07-29T03:02:39;7.22;;;2.38;;
48665;SDS011;34452;50.796;4.994;2022-07-29T03:05:09;5.32;;;2.00;;
48665;SDS011;34452;50.796;4.994;2022-07-29T03:07:40;9.43;;;2.20;;
48665;SDS011;34452;50.796;4.994;2022-07-29T03:10:10;4.00;;;2.00;;
48665;SDS011;34452;50.796;4.994;2022-07-29T03:12:37;9.27;;;2.45;;
48665;SDS011;34452;50.796;4.994;2022-07-29T03:15:03;7.15;;;2.03;;
48665;SDS011;34452;50.796;4.994;2022-07-29T03:17:31;7.07;;;1.95;;
48665;SDS011;34452;50.796;4.994;2022-07-29T03:22:23;5.15;;;2.10;;
48665;SDS011;34452;50.796;4.994;2022-07-29T03:24:49;10.52;;;1.83;;
48665;SDS011;34452;50.796;4.994;2022-07-29T03:27:15;5.82;;;2.20;;
48665;SDS011;34452;50.796;4.994;2022-07-29T03:29:40;11.85;;;3.00;;
48665;SDS011;34452;50.796;4.994;2022-07-29T03:32:06;8.40;;;2.93;;
48665;SDS011;34452;50.796;4.994;2022-07-29T03:34:32;7.18;;;2.20;;
48665;SDS011;34452;50.796;4.994;2022-07-29T03:36:58;4.45;;;2.30;;
48665;SDS011;34452;50.796;4.994;2022-07-29T03:39:25;5.72;;;2.22;;
48665;SDS011;34452;50.796;4.994;2022-07-29T03:41:55;5.30;;;2.00;;
48665;SDS011;34452;50.796;4.994;2022-07-29T03:44:23;5.28;;;2.20;;
48665;SDS011;34452;50.796;4.994;2022-07-29T03:46:52;4.70;;;2.00;;
48665;SDS011;34452;50.796;4.994;2022-07-29T03:49:20;5.80;;;2.30;;
48665;SDS011;34452;50.796;4.994;2022-07-29T03:51:48;6.18;;;2.10;;
48665;SDS011;34452;50.796;4.994;2022-07-29T03:54:14;4.25;;;1.83;;
48665;SDS011;34452;50.796;4.994;2022-07-29T03:56:42;8.23;;;2.22;;
48665;SDS011;34452;50.796;4.994;2022-07-29T03:59:12;5.25;;;2.13;;
48665;SDS011;34452;50.796;4.994;2022-07-29T04:01:40;6.47;;;1.95;;
48665;SDS011;34452;50.796;4.994;2022-07-29T04:04:06;6.05;;;2.00;;
48665;SDS011;34452;50.796;4.994;2022-07-29T04:09:11;10.15;;;2.65;;
48665;SDS011;34452;50.796;4.994;2022-07-29T04:11:38;6.22;;;2.20;;
48665;SDS011;34452;50.796;4.994;2022-07-29T04:14:05;6.32;;;2.40;;
48665;SDS011;34452;50.796;4.994;2022-07-29T04:16:31;6.03;;;1.90;;
48665;SDS011;34452;50.796;4.994;2022-07-29T04:18:56;11.00;;;2.35;;
48665;SDS011;34452;50.796;4.994;2022-07-29T04:21:22;6.53;;;2.30;;
48665;SDS011;34452;50.796;4.994;2022-07-29T04:23:48;5.70;;;2.85;;
48665;SDS011;34452;50.796;4.994;2022-07-29T04:26:15;5.55;;;2.10;;
48665;SDS011;34452;50.796;4.994;2022-07-29T04:28:42;6.00;;;2.10;;
48665;SDS011;34452;50.796;4.994;2022-07-29T04:31:08;6.38;;;2.40;;
48665;SDS011;34452;50.796;4.994;2022-07-29T04:33:34;4.65;;;2.25;;
48665;SDS011;34452;50.796;4.994;2022-07-29T04:36:00;9.10;;;2.40;;
48665;SDS011;34452;50.796;4.994;2022-07-29T04:38:26;5.30;;;2.38;;
48665;SDS011;34452;50.796;4.994;2022-07-29T04:40:52;6.20;;;2.72;;
48665;SDS011;34452;50.796;4.994;2022-07-29T04:43:17;4.60;;;2.45;;
48665;SDS011;34452;50.796;4.994;2022-07-29T04:45:43;4.63;;;2.40;;
48665;SDS011;34452;50.796;4.994;2022-07-29T04:48:09;9.63;;;2.58;;
48665;SDS011;34452;50.796;4.994;2022-07-29T04:50:37;6.00;;;2.53;;
48665;SDS011;34452;50.796;4.994;2022-07-29T04:53:03;5.10;;;2.78;;
48665;SDS011;34452;50.796;4.994;2022-07-29T04:55:29;5.77;;;2.80;;
48665;SDS011;34452;50.796;4.994;2022-07-29T04:57:55;5.80;;;2.63;;
48665;SDS011;34452;50.796;4.994;2022-07-29T05:00:20;8.77;;;2.63;;
48665;SDS011;34452;50.796;4.994;2022-07-29T05:02:48;7.90;;;2.55;;
48665;SDS011;34452;50.796;4.994;2022-07-29T05:05:14;10.27;;;2.83;;
48665;SDS011;34452;50.796;4.994;2022-07-29T05:07:40;5.57;;;2.97;;
48665;SDS011;34452;50.796;4.994;2022-07-29T05:10:06;9.25;;;2.60;;
48665;SDS011;34452;50.796;4.994;2022-07-29T05:12:32;6.88;;;2.72;;
48665;SDS011;34452;50.796;4.994;2022-07-29T05:14:58;7.05;;;3.05;;
48665;SDS011;34452;50.796;4.994;2022-07-29T05:17:24;11.90;;;3.22;;
48665;SDS011;34452;50.796;4.994;2022-07-29T05:19:50;8.55;;;2.65;;
48665;SDS011;34452;50.796;4.994;2022-07-29T05:22:17;11.00;;;3.30;;
48665;SDS011;34452;50.796;4.994;2022-07-29T05:24:44;10.15;;;3.53;;
48665;SDS011;34452;50.796;4.994;2022-07-29T05:27:09;7.97;;;3.33;;
48665;SDS011;34452;50.796;4.994;2022-07-29T05:29:35;7.93;;;2.58;;
48665;SDS011;34452;50.796;4.994;2022-07-29T05:32:01;8.88;;;2.97;;
48665;SDS011;34452;50.796;4.994;2022-07-29T05:34:28;7.15;;;3.30;;
48665;SDS011;34452;50.796;4.994;2022-07-29T05:36:53;8.25;;;3.08;;
48665;SDS011;34452;50.796;4.994;2022-07-29T05:39:19;9.70;;;2.90;;
48665;SDS011;34452;50.796;4.994;2022-07-29T05:41:45;8.80;;;2.65;;
48665;SDS011;34452;50.796;4.994;2022-07-29T05:44:11;8.38;;;3.20;;
48665;SDS011;34452;50.796;4.994;2022-07-29T05:46:38;8.57;;;3.05;;
48665;SDS011;34452;50.796;4.994;2022-07-29T05:49:04;12.07;;;3.45;;
48665;SDS011;34452;50.796;4.994;2022-07-29T05:51:31;6.05;;;3.05;;
48665;SDS011;34452;50.796;4.994;2022-07-29T05:53:58;6.65;;;2.88;;
48665;SDS011;34452;50.796;4.994;2022-07-29T05:56:24;6.68;;;2.92;;
48665;SDS011;34452;50.796;4.994;2022-07-29T05:58:50;11.02;;;3.88;;
48665;SDS011;34452;50.796;4.994;2022-07-29T06:01:15;9.70;;;3.20;;
48665;SDS011;34452;50.796;4.994;2022-07-29T06:03:41;14.20;;;3.55;;
48665;SDS011;34452;50.796;4.994;2022-07-29T06:06:08;6.72;;;3.35;;
48665;SDS011;34452;50.796;4.994;2022-07-29T06:08:34;7.18;;;3.15;;
48665;SDS011;34452;50.796;4.994;2022-07-29T06:11:00;10.90;;;3.25;;
48665;SDS011;34452;50.796;4.994;2022-07-29T06:15:51;10.65;;;3.80;;
48665;SDS011;34452;50.796;4.994;2022-07-29T06:18:17;10.48;;;3.10;;
48665;SDS011;34452;50.796;4.994;2022-07-29T06:20:43;15.35;;;4.35;;
48665;SDS011;34452;50.796;4.994;2022-07-29T06:23:08;8.02;;;3.67;;
48665;SDS011;34452;50.796;4.994;2022-07-29T06:25:35;9.07;;;3.47;;
48665;SDS011;34452;50.796;4.994;2022-07-29T06:28:01;9.43;;;3.63;;
48665;SDS011;34452;50.796;4.994;2022-07-29T06:30:27;9.90;;;3.00;;
48665;SDS011;34452;50.796;4.994;2022-07-29T06:35:19;9.75;;;4.07;;
48665;SDS011;34452;50.796;4.994;2022-07-29T06:37:45;9.52;;;3.65;;
48665;SDS011;34452;50.796;4.994;2022-07-29T06:40:11;6.50;;;2.75;;
48665;SDS011;34452;50.796;4.994;2022-07-29T06:42:55;9.20;;;3.45;;
48665;SDS011;34452;50.796;4.994;2022-07-29T06:45:21;8.35;;;3.35;;
48665;SDS011;34452;50.796;4.994;2022-07-29T06:47:47;7.32;;;3.30;;
48665;SDS011;34452;50.796;4.994;2022-07-29T06:50:13;7.93;;;2.90;;
48665;SDS011;34452;50.796;4.994;2022-07-29T06:55:06;5.05;;;3.13;;
48665;SDS011;34452;50.796;4.994;2022-07-29T06:57:33;10.57;;;3.60;;
48665;SDS011;34452;50.796;4.994;2022-07-29T07:02:25;5.93;;;2.80;;
48665;SDS011;34452;50.796;4.994;2022-07-29T07:04:51;8.48;;;3.53;;
48665;SDS011;34452;50.796;4.994;2022-07-29T07:07:17;10.45;;;3.47;;
48665;SDS011;34452;50.796;4.994;2022-07-29T07:09:42;9.50;;;3.42;;
48665;SDS011;34452;50.796;4.994;2022-07-29T07:12:08;7.13;;;3.78;;
48665;SDS011;34452;50.796;4.994;2022-07-29T07:14:34;6.57;;;3.58;;
48665;SDS011;34452;50.796;4.994;2022-07-29T07:17:00;8.82;;;3.55;;
48665;SDS011;34452;50.796;4.994;2022-07-29T07:19:28;8.80;;;3.60;;
48665;SDS011;34452;50.796;4.994;2022-07-29T07:21:53;9.02;;;3.80;;
48665;SDS011;34452;50.796;4.994;2022-07-29T07:24:19;9.80;;;3.97;;
48665;SDS011;34452;50.796;4.994;2022-07-29T07:26:45;12.02;;;4.70;;
48665;SDS011;34452;50.796;4.994;2022-07-29T07:29:11;10.70;;;3.53;;
48665;SDS011;34452;50.796;4.994;2022-07-29T07:31:37;12.13;;;4.35;;
48665;SDS011;34452;50.796;4.994;2022-07-29T07:34:03;9.07;;;3.70;;
48665;SDS011;34452;50.796;4.994;2022-07-29T07:36:29;9.50;;;4.10;;
48665;SDS011;34452;50.796;4.994;2022-07-29T07:38:54;7.47;;;3.78;;
48665;SDS011;34452;50.796;4.994;2022-07-29T07:41:20;8.45;;;4.18;;
48665;SDS011;34452;50.796;4.994;2022-07-29T07:43:47;12.07;;;3.40;;
48665;SDS011;34452;50.796;4.994;2022-07-29T07:46:13;6.53;;;3.42;;
48665;SDS011;34452;50.796;4.994;2022-07-29T07:48:39;9.90;;;3.50;;
48665;SDS011;34452;50.796;4.994;2022-07-29T07:51:05;9.13;;;3.67;;
48665;SDS011;34452;50.796;4.994;2022-07-29T07:53:32;7.75;;;3.92;;
48665;SDS011;34452;50.796;4.994;2022-07-29T07:55:58;8.23;;;4.13;;
48665;SDS011;34452;50.796;4.994;2022-07-29T07:58:24;10.60;;;3.30;;
48665;SDS011;34452;50.796;4.994;2022-07-29T08:00:50;10.68;;;4.05;;
48665;SDS011;34452;50.796;4.994;2022-07-29T08:03:16;9.88;;;4.65;;
48665;SDS011;34452;50.796;4.994;2022-07-29T08:05:41;15.25;;;4.72;;
48665;SDS011;34452;50.796;4.994;2022-07-29T08:08:07;17.52;;;3.95;;
48665;SDS011;34452;50.796;4.994;2022-07-29T08:10:33;6.55;;;3.80;;
48665;SDS011;34452;50.796;4.994;2022-07-29T08:13:18;5.53;;;3.25;;
48665;SDS011;34452;50.796;4.994;2022-07-29T08:15:45;8.82;;;3.85;;
48665;SDS011;34452;50.796;4.994;2022-07-29T08:18:12;8.80;;;3.83;;
48665;SDS011;34452;50.796;4.994;2022-07-29T08:20:38;10.27;;;4.82;;
48665;SDS011;34452;50.796;4.994;2022-07-29T08:23:06;5.82;;;3.55;;
48665;SDS011;34452;50.796;4.994;2022-07-29T08:25:35;8.57;;;4.10;;
48665;SDS011;34452;50.796;4.994;2022-07-29T08:28:03;10.13;;;3.53;;
48665;SDS011;34452;50.796;4.994;2022-07-29T08:30:29;6.30;;;3.40;;
48665;SDS011;34452;50.796;4.994;2022-07-29T08:32:54;10.77;;;4.32;;
48665;SDS011;34452;50.796;4.994;2022-07-29T08:35:21;7.72;;;3.95;;
48665;SDS011;34452;50.796;4.994;2022-07-29T08:37:47;6.63;;;3.85;;
48665;SDS011;34452;50.796;4.994;2022-07-29T08:40:13;10.80;;;4.45;;
48665;SDS011;34452;50.796;4.994;2022-07-29T08:42:39;7.53;;;4.00;;
48665;SDS011;34452;50.796;4.994;2022-07-29T08:45:05;7.65;;;3.80;;
48665;SDS011;34452;50.796;4.994;2022-07-29T08:47:31;12.02;;;4.85;;
48665;SDS011;34452;50.796;4.994;2022-07-29T08:49:58;10.13;;;3.40;;
48665;SDS011;34452;50.796;4.994;2022-07-29T08:52:25;12.95;;;4.22;;
48665;SDS011;34452;50.796;4.994;2022-07-29T08:54:52;10.88;;;4.05;;
48665;SDS011;34452;50.796;4.994;2022-07-29T08:57:18;16.30;;;4.55;;
48665;SDS011;34452;50.796;4.994;2022-07-29T08:59:46;8.95;;;3.92;;
48665;SDS011;34452;50.796;4.994;2022-07-29T09:02:17;5.82;;;3.08;;
48665;SDS011;34452;50.796;4.994;2022-07-29T09:04:46;6.20;;;3.42;;
48665;SDS011;34452;50.796;4.994;2022-07-29T09:07:14;9.98;;;3.90;;
48665;SDS011;34452;50.796;4.994;2022-07-29T09:09:41;10.40;;;3.95;;
48665;SDS011;34452;50.796;4.994;2022-07-29T09:12:08;7.90;;;3.85;;
48665;SDS011;34452;50.796;4.994;2022-07-29T09:14:37;10.23;;;3.75;;
48665;SDS011;34452;50.796;4.994;2022-07-29T09:17:03;7.03;;;3.40;;
48665;SDS011;34452;50.796;4.994;2022-07-29T09:19:31;10.80;;;4.13;;
48665;SDS011;34452;50.796;4.994;2022-07-29T09:22:00;8.02;;;3.60;;
48665;SDS011;34452;50.796;4.994;2022-07-29T09:27:09;8.57;;;3.47;;
48665;SDS011;34452;50.796;4.994;2022-07-29T09:29:43;8.55;;;3.08;;
48665;SDS011;34452;50.796;4.994;2022-07-29T09:32:09;7.78;;;3.78;;
48665;SDS011;34452;50.796;4.994;2022-07-29T09:34:36;10.73;;;3.97;;
48665;SDS011;34452;50.796;4.994;2022-07-29T09:41:57;10.98;;;4.13;;
48665;SDS011;34452;50.796;4.994;2022-07-29T09:44:25;9.63;;;3.70;;
48665;SDS011;34452;50.796;4.994;2022-07-29T09:46:53;10.38;;;3.88;;
48665;SDS011;34452;50.796;4.994;2022-07-29T09:49:19;11.23;;;3.97;;
48665;SDS011;34452;50.796;4.994;2022-07-29T09:51:45;8.10;;;3.00;;
48665;SDS011;34452;50.796;4.994;2022-07-29T09:54:22;9.00;;;4.20;;
48665;SDS011;34452;50.796;4.994;2022-07-29T09:56:50;14.55;;;3.50;;
48665;SDS011;34452;50.796;4.994;2022-07-29T09:59:17;5.85;;;3.50;;
48665;SDS011;34452;50.796;4.994;2022-07-29T10:01:45;7.03;;;3.30;;
48665;SDS011;34452;50.796;4.994;2022-07-29T10:04:11;13.32;;;4.05;;
48665;SDS011;34452;50.796;4.994;2022-07-29T10:07:06;12.85;;;3.17;;
48665;SDS011;34452;50.796;4.994;2022-07-29T10:09:25;6.32;;;3.38;;
48665;SDS011;34452;50.796;4.994;2022-07-29T10:14:31;7.53;;;3.83;;
48665;SDS011;34452;50.796;4.994;2022-07-29T10:16:59;11.38;;;4.07;;
48665;SDS011;34452;50.796;4.994;2022-07-29T10:19:27;15.23;;;4.55;;
48665;SDS011;34452;50.796;4.994;2022-07-29T10:21:54;10.88;;;4.43;;
48665;SDS011;34452;50.796;4.994;2022-07-29T10:24:23;8.15;;;3.05;;
48665;SDS011;34452;50.796;4.994;2022-07-29T10:26:51;9.98;;;3.63;;
48665;SDS011;34452;50.796;4.994;2022-07-29T10:29:19;9.50;;;3.35;;
48665;SDS011;34452;50.796;4.994;2022-07-29T10:31:49;8.70;;;3.20;;
48665;SDS011;34452;50.796;4.994;2022-07-29T10:40:11;4.75;;;2.78;;
48665;SDS011;34452;50.796;4.994;2022-07-29T10:43:20;6.13;;;3.15;;
48665;SDS011;34452;50.796;4.994;2022-07-29T10:45:49;7.13;;;1.95;;
48665;SDS011;34452;50.796;4.994;2022-07-29T10:48:21;5.00;;;2.05;;
48665;SDS011;34452;50.796;4.994;2022-07-29T10:50:59;4.63;;;1.98;;
48665;SDS011;34452;50.796;4.994;2022-07-29T11:01:44;6.50;;;2.38;;
48665;SDS011;34452;50.796;4.994;2022-07-29T11:04:11;4.32;;;2.05;;
48665;SDS011;34452;50.796;4.994;2022-07-29T11:09:33;4.18;;;2.22;;
48665;SDS011;34452;50.796;4.994;2022-07-29T11:11:59;4.13;;;2.40;;
48665;SDS011;34452;50.796;4.994;2022-07-29T11:17:33;3.60;;;2.08;;
48665;SDS011;34452;50.796;4.994;2022-07-29T11:23:20;4.82;;;1.73;;
48665;SDS011;34452;50.796;4.994;2022-07-29T11:26:18;3.30;;;1.70;;
48665;SDS011;34452;50.796;4.994;2022-07-29T11:31:49;5.65;;;2.03;;
48665;SDS011;34452;50.796;4.994;2022-07-29T11:34:30;5.82;;;1.92;;
48665;SDS011;34452;50.796;4.994;2022-07-29T11:39:36;3.38;;;1.98;;
48665;SDS011;34452;50.796;4.994;2022-07-29T11:50:04;3.38;;;1.77;;
48665;SDS011;34452;50.796;4.994;2022-07-29T11:52:32;6.05;;;2.03;;
48665;SDS011;34452;50.796;4.994;2022-07-29T11:55:02;4.35;;;1.52;;
48665;SDS011;34452;50.796;4.994;2022-07-29T11:57:30;1.83;;;1.10;;
48665;SDS011;34452;50.796;4.994;2022-07-29T11:59:57;4.85;;;1.67;;
48665;SDS011;34452;50.796;4.994;2022-07-29T12:02:23;2.90;;;1.20;;
48665;SDS011;34452;50.796;4.994;2022-07-29T12:04:59;1.20;;;1.00;;
48665;SDS011;34452;50.796;4.994;2022-07-29T12:07:45;3.53;;;1.27;;
48665;SDS011;34452;50.796;4.994;2022-07-29T12:10:12;5.25;;;1.88;;
48665;SDS011;34452;50.796;4.994;2022-07-29T12:12:38;12.45;;;1.50;;
48665;SDS011;34452;50.796;4.994;2022-07-29T12:17:45;5.35;;;1.58;;
48665;SDS011;34452;50.796;4.994;2022-07-29T12:20:12;3.33;;;1.40;;
48665;SDS011;34452;50.796;4.994;2022-07-29T12:25:08;8.63;;;1.65;;
48665;SDS011;34452;50.796;4.994;2022-07-29T12:27:36;4.85;;;1.55;;
48665;SDS011;34452;50.796;4.994;2022-07-29T12:30:05;6.55;;;1.40;;
48665;SDS011;34452;50.796;4.994;2022-07-29T12:32:34;2.60;;;1.33;;
48665;SDS011;34452;50.796;4.994;2022-07-29T12:35:04;5.97;;;1.70;;
48665;SDS011;34452;50.796;4.994;2022-07-29T12:37:33;10.05;;;1.88;;
48665;SDS011;34452;50.796;4.994;2022-07-29T12:40:00;12.82;;;1.95;;
48665;SDS011;34452;50.796;4.994;2022-07-29T12:42:26;8.18;;;1.63;;
48665;SDS011;34452;50.796;4.994;2022-07-29T12:47:18;4.38;;;1.30;;
48665;SDS011;34452;50.796;4.994;2022-07-29T12:49:45;6.35;;;1.67;;
48665;SDS011;34452;50.796;4.994;2022-07-29T12:52:23;5.88;;;1.50;;
48665;SDS011;34452;50.796;4.994;2022-07-29T12:55:08;5.88;;;1.58;;
48665;SDS011;34452;50.796;4.994;2022-07-29T12:57:44;18.10;;;1.85;;
48665;SDS011;34452;50.796;4.994;2022-07-29T13:00:13;6.60;;;1.80;;
48665;SDS011;34452;50.796;4.994;2022-07-29T13:02:39;6.28;;;1.70;;
48665;SDS011;34452;50.796;4.994;2022-07-29T13:05:07;4.18;;;1.40;;
48665;SDS011;34452;50.796;4.994;2022-07-29T13:07:34;6.78;;;1.77;;
48665;SDS011;34452;50.796;4.994;2022-07-29T13:10:14;3.65;;;1.60;;
48665;SDS011;34452;50.796;4.994;2022-07-29T13:17:54;4.97;;;1.50;;
48665;SDS011;34452;50.796;4.994;2022-07-29T13:20:23;8.02;;;1.63;;
48665;SDS011;34452;50.796;4.994;2022-07-29T13:22:50;2.05;;;1.20;;
48665;SDS011;34452;50.796;4.994;2022-07-29T13:25:23;4.80;;;1.67;;
48665;SDS011;34452;50.796;4.994;2022-07-29T13:27:51;3.45;;;1.77;;
48665;SDS011;34452;50.796;4.994;2022-07-29T13:30:19;6.90;;;1.88;;
48665;SDS011;34452;50.796;4.994;2022-07-29T13:32:45;3.20;;;1.67;;
48665;SDS011;34452;50.796;4.994;2022-07-29T13:35:12;2.58;;;1.60;;
48665;SDS011;34452;50.796;4.994;2022-07-29T13:37:38;3.45;;;1.70;;
48665;SDS011;34452;50.796;4.994;2022-07-29T13:42:31;6.97;;;1.58;;
48665;SDS011;34452;50.796;4.994;2022-07-29T13:44:58;5.80;;;1.50;;
48665;SDS011;34452;50.796;4.994;2022-07-29T13:47:25;6.72;;;1.67;;
48665;SDS011;34452;50.796;4.994;2022-07-29T13:49:51;9.43;;;1.70;;
48665;SDS011;34452;50.796;4.994;2022-07-29T13:52:18;2.97;;;1.38;;
48665;SDS011;34452;50.796;4.994;2022-07-29T13:54:44;2.83;;;1.90;;
48665;SDS011;34452;50.796;4.994;2022-07-29T13:57:10;3.65;;;1.40;;
48665;SDS011;34452;50.796;4.994;2022-07-29T13:59:37;3.95;;;1.42;;
48665;SDS011;34452;50.796;4.994;2022-07-29T14:02:04;4.75;;;1.67;;
48665;SDS011;34452;50.796;4.994;2022-07-29T14:04:30;4.65;;;1.40;;
48665;SDS011;34452;50.796;4.994;2022-07-29T14:06:56;6.32;;;1.70;;
48665;SDS011;34452;50.796;4.994;2022-07-29T14:09:22;3.40;;;1.58;;
48665;SDS011;34452;50.796;4.994;2022-07-29T14:14:15;6.25;;;1.42;;
48665;SDS011;34452;50.796;4.994;2022-07-29T14:16:41;5.32;;;1.55;;
48665;SDS011;34452;50.796;4.994;2022-07-29T14:21:33;4.65;;;1.55;;
48665;SDS011;34452;50.796;4.994;2022-07-29T14:23:59;3.40;;;1.65;;
48665;SDS011;34452;50.796;4.994;2022-07-29T14:26:25;5.40;;;1.50;;
48665;SDS011;34452;50.796;4.994;2022-07-29T14:28:51;5.75;;;1.58;;
48665;SDS011;34452;50.796;4.994;2022-07-29T14:31:17;10.93;;;2.00;;
48665;SDS011;34452;50.796;4.994;2022-07-29T14:33:43;11.65;;;1.95;;
48665;SDS011;34452;50.796;4.994;2022-07-29T14:38:34;7.00;;;1.42;;
48665;SDS011;34452;50.796;4.994;2022-07-29T14:41:02;5.65;;;1.55;;
48665;SDS011;34452;50.796;4.994;2022-07-29T14:43:28;6.57;;;1.48;;
48665;SDS011;34452;50.796;4.994;2022-07-29T14:45:54;5.03;;;1.50;;
48665;SDS011;34452;50.796;4.994;2022-07-29T14:50:45;6.53;;;1.40;;
48665;SDS011;34452;50.796;4.994;2022-07-29T14:55:38;7.82;;;1.77;;
48665;SDS011;34452;50.796;4.994;2022-07-29T14:58:04;6.38;;;1.50;;
48665;SDS011;34452;50.796;4.994;2022-07-29T15:00:30;6.20;;;1.67;;
48665;SDS011;34452;50.796;4.994;2022-07-29T15:02:57;3.58;;;1.02;;
48665;SDS011;34452;50.796;4.994;2022-07-29T15:05:24;8.00;;;1.90;;
48665;SDS011;34452;50.796;4.994;2022-07-29T15:10:16;5.85;;;1.30;;
48665;SDS011;34452;50.796;4.994;2022-07-29T15:15:08;4.57;;;1.63;;
48665;SDS011;34452;50.796;4.994;2022-07-29T15:17:33;6.28;;;1.52;;
48665;SDS011;34452;50.796;4.994;2022-07-29T15:19:59;5.25;;;1.70;;
48665;SDS011;34452;50.796;4.994;2022-07-29T15:22:25;4.60;;;1.65;;
48665;SDS011;34452;50.796;4.994;2022-07-29T15:24:51;8.05;;;1.45;;
48665;SDS011;34452;50.796;4.994;2022-07-29T15:27:17;4.97;;;1.42;;
48665;SDS011;34452;50.796;4.994;2022-07-29T15:29:43;3.25;;;1.63;;
48665;SDS011;34452;50.796;4.994;2022-07-29T15:32:09;8.57;;;1.75;;
48665;SDS011;34452;50.796;4.994;2022-07-29T15:34:35;4.80;;;1.80;;
48665;SDS011;34452;50.796;4.994;2022-07-29T15:37:02;4.30;;;1.63;;
48665;SDS011;34452;50.796;4.994;2022-07-29T15:41:53;10.60;;;1.65;;
48665;SDS011;34452;50.796;4.994;2022-07-29T15:44:19;8.75;;;1.90;;
48665;SDS011;34452;50.796;4.994;2022-07-29T15:46:45;4.05;;;1.80;;
48665;SDS011;34452;50.796;4.994;2022-07-29T15:52:15;4.40;;;1.80;;
48665;SDS011;34452;50.796;4.994;2022-07-29T15:54:43;4.35;;;2.13;;
48665;SDS011;34452;50.796;4.994;2022-07-29T15:57:09;5.82;;;2.63;;
48665;SDS011;34452;50.796;4.994;2022-07-29T16:02:00;8.70;;;2.55;;
48665;SDS011;34452;50.796;4.994;2022-07-29T16:06:52;7.38;;;2.17;;
48665;SDS011;34452;50.796;4.994;2022-07-29T16:09:18;4.43;;;2.10;;
48665;SDS011;34452;50.796;4.994;2022-07-29T16:11:44;11.85;;;2.35;;
48665;SDS011;34452;50.796;4.994;2022-07-29T16:14:12;4.70;;;2.05;;
48665;SDS011;34452;50.796;4.994;2022-07-29T16:16:38;6.15;;;2.67;;
48665;SDS011;34452;50.796;4.994;2022-07-29T16:19:04;11.40;;;2.38;;
48665;SDS011;34452;50.796;4.994;2022-07-29T16:21:30;5.55;;;2.20;;
48665;SDS011;34452;50.796;4.994;2022-07-29T16:23:56;10.10;;;2.33;;
48665;SDS011;34452;50.796;4.994;2022-07-29T16:26:23;4.32;;;2.10;;
48665;SDS011;34452;50.796;4.994;2022-07-29T16:28:49;4.75;;;2.42;;
48665;SDS011;34452;50.796;4.994;2022-07-29T16:31:14;4.63;;;1.85;;
48665;SDS011;34452;50.796;4.994;2022-07-29T16:33:40;4.75;;;2.22;;
48665;SDS011;34452;50.796;4.994;2022-07-29T16:36:06;5.85;;;2.50;;
48665;SDS011;34452;50.796;4.994;2022-07-29T16:38:31;6.15;;;2.80;;
48665;SDS011;34452;50.796;4.994;2022-07-29T16:40:57;6.15;;;2.53;;
48665;SDS011;34452;50.796;4.994;2022-07-29T16:43:23;15.82;;;2.88;;
48665;SDS011;34452;50.796;4.994;2022-07-29T16:45:49;8.82;;;3.25;;
48665;SDS011;34452;50.796;4.994;2022-07-29T16:48:15;17.55;;;3.90;;
48665;SDS011;34452;50.796;4.994;2022-07-29T16:50:41;9.73;;;2.88;;